Time;durP1;ratioP1;P1;durP2;ratioP2;P2;SDS_P1;SDS_P2;PMS_P1;PMS_P2;Temp;Humidity;BMP_temperature;BMP_pressure;BME280_temperature;BME280_humidity;BME280_pressure;Samples;Min_cycle;Max_cycle;Signal;HPM_P1;HPM_P2
2024/02/10 00:03:10;;;;;;;28.10;13.38;;;12.90;99.90;;;;;;10089254;28;20033;-61
2024/02/10 00:08:02;;;;;;;7.93;4.43;;;12.90;99.90;;;;;;10080046;28;20119;-62
2024/02/10 00:13:00;;;;;;;9.25;3.45;;;13.00;99.90;;;;;;10074051;28;20046;-62
2024/02/10 00:17:51;;;;;;;4.10;2.63;;;13.00;99.90;;;;;;10092310;28;20278;-63
2024/02/10 00:22:43;;;;;;;6.15;2.83;;;13.00;99.90;;;;;;10101648;28;20029;-64
2024/02/10 00:27:34;;;;;;;5.65;2.97;;;12.90;99.90;;;;;;10091606;28;20063;-63
2024/02/10 00:32:25;;;;;;;3.75;2.85;;;13.00;99.90;;;;;;10101297;28;20037;-64
2024/02/10 00:37:16;;;;;;;4.85;3.10;;;12.90;99.90;;;;;;10085623;28;20034;-64
2024/02/10 00:42:07;;;;;;;4.47;2.97;;;12.90;99.90;;;;;;10090240;28;20052;-64
2024/02/10 00:46:57;;;;;;;5.32;3.03;;;13.00;99.90;;;;;;10089543;28;20087;-63
2024/02/10 00:51:48;;;;;;;5.30;4.05;;;12.90;99.90;;;;;;10093105;28;20033;-64
2024/02/10 00:56:39;;;;;;;4.32;3.10;;;12.90;99.90;;;;;;10097742;28;20792;-64
2024/02/10 01:01:31;;;;;;;7.38;3.05;;;12.90;99.90;;;;;;10101615;28;20071;-66
2024/02/10 01:06:21;;;;;;;4.45;3.25;;;12.90;99.90;;;;;;10099457;28;20033;-66
2024/02/10 01:11:20;;;;;;;6.07;3.60;;;12.90;99.90;;;;;;10093478;28;20074;-66
2024/02/10 01:16:15;;;;;;;5.15;3.40;;;12.90;99.90;;;;;;10105796;28;20029;-66
2024/02/10 01:21:09;;;;;;;5.60;3.55;;;12.90;99.90;;;;;;10106665;28;20468;-67
2024/02/10 01:26:00;;;;;;;4.95;3.30;;;12.80;99.90;;;;;;10101955;28;20051;-64
2024/02/10 01:30:51;;;;;;;5.05;3.83;;;12.80;99.90;;;;;;10083890;28;20819;-63
2024/02/10 01:35:42;;;;;;;5.05;3.58;;;12.90;99.90;;;;;;10095124;28;20057;-64
2024/02/10 01:40:32;;;;;;;6.05;3.40;;;12.80;99.90;;;;;;10110641;28;20045;-65
2024/02/10 01:45:23;;;;;;;6.85;4.32;;;12.80;99.90;;;;;;10106084;28;20108;-66
2024/02/10 01:50:14;;;;;;;9.15;4.55;;;12.80;99.90;;;;;;10080677;28;20065;-65
2024/02/10 01:55:06;;;;;;;6.90;4.13;;;12.70;99.90;;;;;;10110826;28;20040;-64
2024/02/10 01:59:59;;;;;;;5.38;4.40;;;12.70;99.90;;;;;;10108397;28;20102;-65
2024/02/10 02:04:49;;;;;;;7.00;3.72;;;12.60;99.90;;;;;;10112204;28;20052;-64
2024/02/10 02:09:40;;;;;;;5.75;3.25;;;12.70;99.90;;;;;;10098779;28;20040;-65
2024/02/10 02:14:31;;;;;;;6.47;4.35;;;12.70;99.90;;;;;;10104109;28;20032;-65
2024/02/10 02:19:21;;;;;;;6.13;3.95;;;12.60;99.90;;;;;;10108272;28;20025;-63
2024/02/10 02:24:12;;;;;;;8.05;3.97;;;12.60;99.90;;;;;;10110426;28;20433;-64
2024/02/10 02:29:07;;;;;;;6.07;3.55;;;12.60;99.90;;;;;;10110665;28;20045;-63
2024/02/10 02:34:02;;;;;;;8.88;4.72;;;12.50;99.90;;;;;;10114077;28;20307;-63
2024/02/10 02:38:53;;;;;;;6.88;4.28;;;12.60;99.90;;;;;;10106934;28;20116;-63
2024/02/10 02:43:45;;;;;;;6.65;4.72;;;12.60;99.90;;;;;;10112112;28;20021;-63
2024/02/10 02:48:35;;;;;;;7.88;4.20;;;12.40;99.90;;;;;;10110851;28;20111;-63
2024/02/10 02:53:28;;;;;;;8.15;4.10;;;12.50;99.90;;;;;;10110260;28;20033;-62
2024/02/10 02:58:18;;;;;;;5.78;3.63;;;12.50;99.90;;;;;;10115291;28;20036;-63
2024/02/10 03:03:09;;;;;;;6.85;4.60;;;12.50;99.90;;;;;;10111363;28;20060;-63
2024/02/10 03:08:00;;;;;;;6.25;3.75;;;12.40;99.90;;;;;;10087332;28;20131;-62
2024/02/10 03:12:51;;;;;;;7.13;3.90;;;12.30;99.90;;;;;;10100271;28;20029;-63
2024/02/10 03:17:46;;;;;;;7.00;3.75;;;12.40;99.90;;;;;;10105932;28;20037;-63
2024/02/10 03:22:37;;;;;;;6.18;3.53;;;12.40;99.90;;;;;;10103812;28;20448;-62
2024/02/10 03:27:27;;;;;;;6.18;3.85;;;12.40;99.90;;;;;;10103062;28;20048;-63
2024/02/10 03:32:18;;;;;;;7.00;3.70;;;12.40;99.90;;;;;;10101507;28;20035;-62
2024/02/10 03:37:12;;;;;;;7.30;3.97;;;12.40;99.90;;;;;;10101282;28;20060;-62
2024/02/10 03:42:04;;;;;;;5.85;3.53;;;12.40;99.90;;;;;;10099230;28;20439;-62
2024/02/10 03:46:57;;;;;;;6.43;3.72;;;12.50;99.90;;;;;;10099810;28;20842;-62
2024/02/10 03:51:48;;;;;;;6.05;3.55;;;12.40;99.90;;;;;;10101293;28;20461;-62
2024/02/10 03:56:46;;;;;;;9.20;5.03;;;12.40;99.90;;;;;;10103391;28;20056;-63
2024/02/10 04:01:37;;;;;;;7.75;4.65;;;12.40;99.90;;;;;;10103147;28;20405;-63
2024/02/10 04:06:28;;;;;;;8.45;4.72;;;12.30;99.90;;;;;;10093359;28;20319;-62
2024/02/10 04:11:19;;;;;;;6.55;4.30;;;12.30;99.90;;;;;;10095037;28;20036;-62
2024/02/10 04:16:13;;;;;;;7.30;4.53;;;12.30;99.90;;;;;;10084904;28;20461;-62
2024/02/10 04:21:04;;;;;;;7.10;4.32;;;12.30;99.90;;;;;;10107865;28;20689;-62
2024/02/10 04:25:56;;;;;;;7.15;4.70;;;12.20;99.90;;;;;;10097211;28;20048;-64
2024/02/10 04:30:50;;;;;;;8.27;5.20;;;12.30;99.90;;;;;;10106816;28;20039;-63
2024/02/10 04:35:41;;;;;;;8.25;4.68;;;12.30;99.90;;;;;;10094082;28;20257;-63
2024/02/10 04:40:31;;;;;;;9.30;4.88;;;12.30;99.90;;;;;;10119085;28;20114;-62
2024/02/10 04:45:27;;;;;;;8.45;4.32;;;12.30;99.90;;;;;;10109524;28;20067;-63
2024/02/10 04:50:21;;;;;;;9.35;5.03;;;12.30;99.90;;;;;;10111216;28;20040;-62
2024/02/10 04:55:21;;;;;;;7.15;4.90;;;12.20;99.90;;;;;;10112450;28;20036;-63
2024/02/10 05:00:15;;;;;;;7.72;4.55;;;12.20;99.90;;;;;;10116870;28;20025;-62
2024/02/10 05:05:06;;;;;;;7.28;4.63;;;12.20;99.90;;;;;;10095076;28;20112;-63
2024/02/10 05:10:00;;;;;;;8.85;5.85;;;12.20;99.90;;;;;;10111409;28;20270;-63
2024/02/10 05:14:51;;;;;;;10.07;5.40;;;12.20;99.90;;;;;;10114401;28;20212;-63
2024/02/10 05:19:42;;;;;;;9.55;4.82;;;12.20;99.90;;;;;;10116248;28;20028;-63
2024/02/10 05:24:32;;;;;;;7.70;4.43;;;12.20;99.90;;;;;;10117189;28;20052;-63
2024/02/10 05:29:23;;;;;;;7.78;4.57;;;12.20;99.90;;;;;;10108526;28;20242;-62
2024/02/10 05:34:18;;;;;;;6.82;4.63;;;12.20;99.90;;;;;;10107341;28;20033;-63
2024/02/10 05:39:09;;;;;;;6.37;3.83;;;12.20;99.90;;;;;;10109937;28;20110;-62
2024/02/10 05:43:59;;;;;;;7.70;4.25;;;12.20;99.90;;;;;;10110187;28;20487;-63
2024/02/10 05:48:50;;;;;;;7.07;4.35;;;12.10;99.90;;;;;;10112585;28;20044;-62
2024/02/10 05:53:45;;;;;;;6.20;4.38;;;12.10;99.90;;;;;;10111596;28;20071;-63
2024/02/10 05:58:35;;;;;;;7.53;3.75;;;12.20;99.90;;;;;;10112217;28;20029;-63
2024/02/10 06:03:29;;;;;;;6.95;3.90;;;12.20;99.90;;;;;;10116242;28;20097;-63
2024/02/10 06:08:19;;;;;;;6.85;3.75;;;12.10;99.90;;;;;;10103610;28;20112;-63
2024/02/10 06:13:14;;;;;;;6.05;4.00;;;12.10;99.90;;;;;;10105434;28;20063;-63
2024/02/10 06:18:04;;;;;;;5.70;4.03;;;12.10;99.90;;;;;;10108403;28;20060;-64
2024/02/10 06:22:57;;;;;;;6.75;3.33;;;12.10;99.90;;;;;;10108087;28;20028;-63
2024/02/10 06:27:47;;;;;;;7.22;3.85;;;12.00;99.90;;;;;;10102322;28;20041;-62
2024/02/10 06:32:39;;;;;;;7.18;3.90;;;12.10;99.90;;;;;;10111619;28;20025;-62
2024/02/10 06:37:32;;;;;;;5.15;3.22;;;12.10;99.90;;;;;;10116899;28;20033;-62
2024/02/10 06:42:22;;;;;;;6.00;3.60;;;12.10;99.90;;;;;;10107477;28;20051;-62
2024/02/10 06:47:13;;;;;;;7.05;4.03;;;12.10;99.90;;;;;;10104179;28;20406;-64
2024/02/10 06:52:04;;;;;;;5.32;3.63;;;12.10;99.90;;;;;;10104283;28;20021;-63
2024/02/10 06:56:57;;;;;;;5.55;3.38;;;12.10;99.90;;;;;;10115418;28;20053;-63
2024/02/10 07:01:52;;;;;;;5.20;3.42;;;12.10;99.90;;;;;;10103192;28;20041;-63
2024/02/10 07:06:42;;;;;;;4.60;3.03;;;12.10;99.90;;;;;;10089181;28;20080;-63
2024/02/10 07:11:33;;;;;;;4.53;3.67;;;12.10;99.90;;;;;;10108434;28;20044;-62
2024/02/10 07:16:24;;;;;;;7.20;3.45;;;12.00;99.90;;;;;;10106408;28;20416;-63
2024/02/10 07:21:15;;;;;;;4.72;3.33;;;12.00;99.90;;;;;;10100557;28;20489;-63
2024/02/10 07:26:06;;;;;;;4.68;3.50;;;12.10;99.90;;;;;;10101291;28;20076;-63
2024/02/10 07:30:57;;;;;;;5.43;3.80;;;12.10;99.90;;;;;;10095096;28;20036;-63
2024/02/10 07:35:49;;;;;;;7.72;4.32;;;12.00;99.90;;;;;;10101468;28;20071;-63
2024/02/10 07:40:40;;;;;;;7.65;4.70;;;12.10;99.90;;;;;;10086092;28;20033;-63
2024/02/10 07:45:31;;;;;;;6.10;4.00;;;12.00;99.90;;;;;;10088092;28;20053;-63
2024/02/10 07:50:21;;;;;;;5.93;4.28;;;12.00;99.90;;;;;;10077324;28;20086;-64
2024/02/10 07:55:15;;;;;;;5.97;3.83;;;12.00;99.90;;;;;;10096473;28;20108;-64
2024/02/10 08:00:10;;;;;;;8.63;5.75;;;12.10;99.90;;;;;;10096977;28;20063;-66
2024/02/10 08:05:01;;;;;;;10.63;5.13;;;12.10;99.90;;;;;;10096034;28;20029;-65
2024/02/10 08:09:52;;;;;;;10.10;4.10;;;12.10;99.90;;;;;;10099250;28;20041;-63
2024/02/10 08:14:46;;;;;;;6.55;3.88;;;12.00;99.90;;;;;;10105093;28;20036;-63
2024/02/10 08:19:36;;;;;;;9.75;4.88;;;12.00;99.90;;;;;;10102249;28;20426;-63
2024/02/10 08:24:31;;;;;;;7.15;4.10;;;12.10;99.90;;;;;;10102508;28;20033;-62
2024/02/10 08:29:22;;;;;;;6.50;4.50;;;12.10;99.90;;;;;;10103329;28;20041;-63
2024/02/10 08:34:13;;;;;;;6.85;4.07;;;12.10;99.90;;;;;;10102875;28;20058;-64
2024/02/10 08:39:04;;;;;;;9.32;4.25;;;12.10;99.90;;;;;;10100929;28;20029;-66
2024/02/10 08:43:54;;;;;;;6.35;3.83;;;12.10;99.90;;;;;;10103584;28;20028;-63
2024/02/10 08:48:47;;;;;;;7.43;4.45;;;12.10;99.90;;;;;;10086979;28;20598;-63
2024/02/10 08:53:38;;;;;;;6.30;4.32;;;12.20;99.90;;;;;;10102704;28;20025;-63
2024/02/10 08:58:28;;;;;;;7.25;4.43;;;12.20;99.90;;;;;;10102529;28;20033;-63
2024/02/10 09:03:19;;;;;;;7.30;5.35;;;12.20;99.90;;;;;;10103437;28;20029;-62
2024/02/10 09:08:10;;;;;;;7.57;4.38;;;12.20;99.90;;;;;;10101574;28;20037;-64
2024/02/10 09:13:03;;;;;;;6.90;3.65;;;12.20;99.90;;;;;;10100817;28;20029;-64
2024/02/10 09:17:53;;;;;;;6.93;3.78;;;12.20;99.90;;;;;;10101760;28;20048;-66
2024/02/10 09:22:44;;;;;;;5.55;3.92;;;12.20;99.90;;;;;;10097760;28;20025;-63
2024/02/10 09:27:35;;;;;;;6.43;3.75;;;12.30;99.90;;;;;;10082454;28;20106;-64
2024/02/10 09:32:26;;;;;;;6.65;4.35;;;12.20;99.90;;;;;;10101006;28;20029;-65
2024/02/10 09:37:17;;;;;;;8.82;4.63;;;12.10;99.90;;;;;;10108245;28;20425;-64
2024/02/10 09:42:15;;;;;;;9.25;5.43;;;12.10;99.90;;;;;;10099787;28;20033;-63
2024/02/10 09:47:07;;;;;;;8.27;4.60;;;12.20;99.90;;;;;;10101191;28;20068;-64
2024/02/10 09:51:58;;;;;;;6.47;4.32;;;12.10;99.90;;;;;;10099877;28;20033;-63
2024/02/10 09:56:50;;;;;;;9.13;5.80;;;12.00;99.90;;;;;;10098325;28;20032;-63
2024/02/10 10:01:41;;;;;;;8.73;5.10;;;12.00;99.90;;;;;;10097664;28;20037;-64
2024/02/10 10:06:33;;;;;;;9.23;5.90;;;12.00;99.90;;;;;;10096692;28;20379;-63
2024/02/10 10:11:24;;;;;;;7.97;5.30;;;12.00;99.90;;;;;;10096529;28;20491;-62
2024/02/10 10:16:15;;;;;;;8.50;4.75;;;12.00;99.90;;;;;;10096298;28;20044;-63
2024/02/10 10:21:10;;;;;;;9.70;5.55;;;11.90;99.90;;;;;;10098706;28;20037;-66
2024/02/10 10:26:02;;;;;;;6.77;4.53;;;12.00;99.90;;;;;;10102123;28;20076;-63
2024/02/10 10:30:55;;;;;;;8.00;4.72;;;11.90;99.90;;;;;;10102467;28;20627;-64
2024/02/10 10:35:47;;;;;;;7.78;4.22;;;11.90;99.90;;;;;;10108289;28;20098;-64
2024/02/10 10:40:38;;;;;;;7.10;4.90;;;12.00;99.90;;;;;;10105924;28;20040;-63
2024/02/10 10:45:32;;;;;;;9.18;4.88;;;12.00;99.90;;;;;;10106204;28;20446;-65
2024/02/10 10:50:22;;;;;;;7.72;4.22;;;12.10;99.90;;;;;;10099801;28;20029;-63
2024/02/10 10:55:16;;;;;;;6.82;4.18;;;12.10;99.90;;;;;;10101275;28;20044;-63
2024/02/10 11:00:12;;;;;;;7.40;4.03;;;12.10;99.90;;;;;;10102888;28;20044;-63
2024/02/10 11:05:08;;;;;;;6.85;3.78;;;12.20;99.90;;;;;;10108365;28;20057;-63
2024/02/10 11:09:58;;;;;;;;;;;12.20;99.90;;;;;;10101641;28;20098;-63
2024/02/10 11:14:53;;;;;;;5.28;3.47;;;12.10;99.90;;;;;;10099961;28;20427;-64
2024/02/10 11:20:04;;;;;;;5.10;3.47;;;12.20;99.90;;;;;;10103707;28;20041;-64
2024/02/10 11:24:57;;;;;;;6.20;3.65;;;12.40;99.90;;;;;;10092189;28;20070;-63
2024/02/10 11:29:58;;;;;;;5.93;3.97;;;12.50;99.90;;;;;;10095779;28;20037;-64
2024/02/10 11:34:49;;;;;;;5.93;3.72;;;12.50;99.90;;;;;;10091155;28;20017;-63
2024/02/10 11:39:40;;;;;;;8.20;3.83;;;12.70;99.90;;;;;;10092835;28;20022;-64
2024/02/10 11:44:31;;;;;;;6.15;3.97;;;12.70;99.90;;;;;;10096317;28;20112;-64
2024/02/10 11:49:21;;;;;;;5.80;3.58;;;12.70;99.90;;;;;;10095104;28;20048;-63
2024/02/10 11:54:12;;;;;;;8.48;4.72;;;12.80;99.90;;;;;;10096153;28;20017;-63
2024/02/10 11:59:03;;;;;;;6.80;3.22;;;12.70;99.90;;;;;;10094377;28;20040;-63
2024/02/10 12:03:54;;;;;;;4.63;3.15;;;12.70;99.90;;;;;;10094767;28;20048;-63
2024/02/10 12:08:45;;;;;;;6.28;2.72;;;12.50;99.90;;;;;;10078378;28;20073;-63
2024/02/10 12:13:38;;;;;;;5.05;2.75;;;12.40;99.90;;;;;;10089548;28;20690;-63
2024/02/10 12:18:29;;;;;;;4.38;2.65;;;12.40;99.90;;;;;;10082340;28;20038;-62
2024/02/10 12:23:20;;;;;;;5.20;3.33;;;12.40;99.90;;;;;;10078283;28;20032;-62
2024/02/10 12:28:11;;;;;;;5.97;3.08;;;12.60;99.90;;;;;;10049380;28;20053;-63
2024/02/10 12:33:01;;;;;;;6.05;3.15;;;12.50;99.90;;;;;;10039106;28;20026;-64
2024/02/10 12:37:52;;;;;;;5.15;3.35;;;12.60;99.90;;;;;;10044355;28;20021;-64
2024/02/10 12:42:43;;;;;;;5.10;3.10;;;12.60;99.90;;;;;;10045723;28;20029;-63
2024/02/10 12:47:37;;;;;;;5.07;3.38;;;12.50;99.90;;;;;;10042737;28;20120;-64
2024/02/10 12:52:28;;;;;;;5.30;3.25;;;12.50;99.90;;;;;;10040366;28;20022;-65
2024/02/10 12:57:20;;;;;;;6.93;3.90;;;12.60;99.90;;;;;;10049856;28;20033;-66
2024/02/10 13:02:11;;;;;;;8.32;4.30;;;12.80;99.90;;;;;;10048698;28;20545;-65
2024/02/10 13:07:02;;;;;;;5.13;3.28;;;12.80;99.90;;;;;;10057896;28;20022;-66
2024/02/10 13:11:53;;;;;;;8.43;4.05;;;12.90;99.90;;;;;;10057857;28;20446;-67
2024/02/10 13:16:43;;;;;;;8.13;3.90;;;12.80;99.90;;;;;;10058101;28;20022;-68
2024/02/10 13:21:34;;;;;;;7.97;4.20;;;12.90;99.90;;;;;;10048431;28;20033;-68
2024/02/10 13:26:25;;;;;;;4.25;2.75;;;12.80;99.90;;;;;;10067932;28;20045;-67
2024/02/10 13:31:21;;;;;;;6.88;3.78;;;12.80;99.90;;;;;;10097766;28;20158;-67
2024/02/10 13:36:15;;;;;;;5.35;3.75;;;12.70;99.90;;;;;;10095389;28;20087;-68
2024/02/10 14:07:02;;;;;;;8.30;4.25;;;12.60;99.90;;;;;;10036613;28;20048;-65
2024/02/10 14:11:58;;;;;;;6.78;4.05;;;12.80;99.90;;;;;;10096183;28;20033;-66
2024/02/10 14:17:07;;;;;;;7.30;4.70;;;12.70;99.90;;;;;;10098188;28;20028;-65
2024/02/10 14:21:58;;;;;;;5.13;4.03;;;12.80;99.90;;;;;;10095955;28;20021;-65
2024/02/10 14:27:00;;;;;;;9.77;4.35;;;12.80;99.90;;;;;;10101554;28;20071;-65
2024/02/10 14:31:52;;;;;;;7.55;3.95;;;12.90;99.90;;;;;;10096900;28;20037;-65
2024/02/10 14:36:51;;;;;;;7.18;4.78;;;12.90;99.90;;;;;;10099092;28;20021;-66
2024/02/10 14:41:45;;;;;;;5.65;3.58;;;13.00;99.90;;;;;;10097111;28;20025;-66
2024/02/10 14:46:39;;;;;;;;;;;12.80;99.90;;;;;;10099335;28;20087;-66
2024/02/10 14:51:29;;;;;;;5.15;3.72;;;12.90;99.90;;;;;;10089150;28;19939;-66
2024/02/10 14:56:23;;;;;;;9.00;4.55;;;12.80;99.90;;;;;;10079700;28;20025;-65
2024/02/10 15:01:14;;;;;;;6.28;4.70;;;12.90;99.90;;;;;;10097356;28;20107;-66
2024/02/10 15:06:10;;;;;;;7.50;4.93;;;12.90;99.90;;;;;;10097152;28;20104;-66
2024/02/10 15:11:01;;;;;;;6.63;3.95;;;13.00;99.90;;;;;;10096656;28;20049;-66
2024/02/10 15:15:52;;;;;;;7.72;4.47;;;13.00;99.90;;;;;;10095308;28;20124;-66
2024/02/10 15:20:44;;;;;;;6.20;4.07;;;13.00;99.90;;;;;;10096015;28;20036;-66
2024/02/10 15:25:34;;;;;;;7.13;4.15;;;13.00;99.90;;;;;;10095851;28;20572;-66
2024/02/10 15:30:25;;;;;;;8.00;4.38;;;13.00;99.90;;;;;;10075554;28;20135;-66
2024/02/10 15:35:16;;;;;;;7.07;4.22;;;12.90;99.90;;;;;;10092053;28;20033;-65
2024/02/10 15:40:20;;;;;;;7.43;4.40;;;13.00;99.90;;;;;;10095197;28;20045;-66
2024/02/10 15:45:14;;;;;;;5.53;4.07;;;12.90;99.90;;;;;;10095509;28;20025;-67
2024/02/10 15:50:08;;;;;;;5.93;4.53;;;13.00;99.90;;;;;;10093856;28;20039;-67
2024/02/10 15:54:58;;;;;;;10.60;5.35;;;13.00;99.90;;;;;;10095684;28;20025;-68
2024/02/10 15:59:49;;;;;;;7.97;4.88;;;13.00;99.90;;;;;;10095881;28;20033;-66
2024/02/10 16:04:41;;;;;;;8.88;4.97;;;13.10;99.90;;;;;;10096142;28;20035;-66
2024/02/10 16:09:32;;;;;;;6.63;4.93;;;13.00;99.90;;;;;;10092032;28;20041;-67
2024/02/10 16:14:27;;;;;;;7.70;4.45;;;13.10;99.90;;;;;;10093961;28;20025;-67
2024/02/10 16:19:18;;;;;;;6.15;4.40;;;13.10;99.90;;;;;;10075393;28;20144;-65
2024/02/10 16:24:09;;;;;;;5.93;4.18;;;13.10;99.90;;;;;;10095260;28;20033;-66
2024/02/10 16:28:59;;;;;;;6.45;4.55;;;13.10;99.90;;;;;;10054121;28;20053;-66
2024/02/10 16:33:51;;;;;;;8.32;5.15;;;13.10;99.90;;;;;;10070163;28;20167;-65
2024/02/10 16:38:42;;;;;;;8.50;4.20;;;13.00;99.90;;;;;;10063391;28;20523;-66
2024/02/10 16:43:33;;;;;;;6.38;4.00;;;12.90;99.90;;;;;;10049693;28;20038;-66
2024/02/10 16:48:23;;;;;;;5.53;3.72;;;12.70;99.90;;;;;;10062765;28;20037;-67
2024/02/10 16:53:14;;;;;;;7.18;3.53;;;12.80;99.90;;;;;;10056975;28;20402;-67
2024/02/10 16:58:08;;;;;;;6.88;4.80;;;12.80;99.90;;;;;;10055680;28;20033;-67
2024/02/10 17:02:59;;;;;;;7.13;4.53;;;12.80;99.90;;;;;;10063519;28;20071;-68
2024/02/10 17:07:53;;;;;;;5.80;3.63;;;12.80;99.90;;;;;;10057779;28;20039;-67
2024/02/10 17:12:46;;;;;;;6.05;4.50;;;12.70;99.90;;;;;;10061133;28;20022;-66
2024/02/10 17:17:37;;;;;;;7.63;4.45;;;12.70;99.90;;;;;;10060115;28;20076;-66
2024/02/10 17:22:27;;;;;;;8.82;4.93;;;12.80;99.90;;;;;;10047426;28;20067;-66
2024/02/10 17:27:19;;;;;;;10.85;4.85;;;12.90;99.90;;;;;;10076256;28;20215;-65
2024/02/10 17:32:10;;;;;;;7.10;4.22;;;12.80;99.90;;;;;;10086416;28;20025;-67
2024/02/10 17:37:01;;;;;;;6.15;4.35;;;12.80;99.90;;;;;;10097675;28;20025;-66
2024/02/10 17:41:52;;;;;;;8.93;5.25;;;12.70;99.90;;;;;;10089800;28;20036;-66
2024/02/10 17:46:47;;;;;;;11.35;5.18;;;12.60;99.90;;;;;;10094399;28;20035;-66
2024/02/10 17:51:38;;;;;;;8.25;4.68;;;12.60;99.90;;;;;;10090115;28;20033;-67
2024/02/10 17:56:30;;;;;;;8.00;4.93;;;12.70;99.90;;;;;;10090033;28;20044;-66
2024/02/10 18:01:23;;;;;;;8.95;4.47;;;12.80;99.90;;;;;;10092251;28;20017;-67
2024/02/10 18:06:15;;;;;;;7.47;4.95;;;12.60;99.90;;;;;;10085977;28;20063;-66
2024/02/10 18:11:07;;;;;;;8.90;5.47;;;12.70;99.90;;;;;;10061947;28;20048;-66
2024/02/10 18:15:58;;;;;;;9.65;6.50;;;12.60;99.90;;;;;;10090704;28;20047;-64
2024/02/10 18:20:49;;;;;;;10.30;7.18;;;12.70;99.90;;;;;;10087321;28;20025;-66
2024/02/10 18:25:41;;;;;;;9.77;5.57;;;12.80;99.90;;;;;;10085247;28;20600;-65
2024/02/10 18:30:31;;;;;;;10.88;6.35;;;12.80;99.90;;;;;;10073017;28;20074;-67
2024/02/10 18:35:25;;;;;;;14.25;7.80;;;12.80;99.90;;;;;;10070856;28;20556;-66
2024/02/10 18:40:16;;;;;;;13.80;7.22;;;12.70;99.90;;;;;;10079230;28;20449;-66
2024/02/10 18:45:07;;;;;;;16.75;7.13;;;12.80;99.90;;;;;;10093801;28;20036;-65
2024/02/10 18:49:58;;;;;;;10.38;6.25;;;12.70;99.90;;;;;;10098924;28;20029;-66
2024/02/10 18:54:49;;;;;;;12.10;6.03;;;12.70;99.90;;;;;;10094075;28;20080;-67
2024/02/10 18:59:44;;;;;;;10.50;6.38;;;12.60;99.90;;;;;;10091390;28;20037;-66
2024/02/10 19:04:35;;;;;;;13.88;7.13;;;12.50;99.90;;;;;;10102938;28;20029;-68
2024/02/10 19:09:26;;;;;;;12.95;7.18;;;12.60;99.90;;;;;;10101148;28;20102;-67
2024/02/10 19:14:16;;;;;;;11.68;7.13;;;12.60;99.90;;;;;;10104843;28;20096;-67
2024/02/10 19:19:07;;;;;;;14.25;8.15;;;12.50;99.90;;;;;;10114184;28;20051;-66
2024/02/10 19:24:00;;;;;;;10.57;6.88;;;12.60;99.90;;;;;;10102759;28;20035;-67
2024/02/10 19:28:51;;;;;;;13.65;6.85;;;12.70;99.90;;;;;;10109863;28;20040;-68
2024/02/10 19:33:42;;;;;;;14.65;6.97;;;12.70;99.90;;;;;;10110191;28;20036;-67
2024/02/10 19:38:36;;;;;;;11.05;6.05;;;12.70;99.90;;;;;;10082210;28;20025;-68
2024/02/10 19:43:30;;;;;;;14.70;7.22;;;12.70;99.90;;;;;;10112201;28;20352;-66
2024/02/10 19:48:25;;;;;;;13.40;7.28;;;12.70;99.90;;;;;;10106996;28;20062;-66
2024/02/10 19:53:15;;;;;;;16.77;11.00;;;12.70;99.90;;;;;;10109521;28;20470;-66
2024/02/10 19:58:07;;;;;;;13.75;6.93;;;12.70;99.90;;;;;;10107960;28;20037;-66
2024/02/10 20:02:59;;;;;;;12.32;6.63;;;12.70;99.90;;;;;;10110995;28;20074;-67
2024/02/10 20:07:51;;;;;;;10.68;6.97;;;12.60;99.90;;;;;;10109184;28;20032;-68
2024/02/10 20:12:43;;;;;;;12.80;7.13;;;12.70;99.90;;;;;;10111580;28;20029;-69
2024/02/10 20:17:34;;;;;;;12.23;7.22;;;12.70;99.90;;;;;;10105969;28;20059;-67
2024/02/10 20:22:24;;;;;;;10.95;7.53;;;12.70;99.90;;;;;;10111402;28;20047;-67
2024/02/10 20:27:17;;;;;;;14.45;8.10;;;12.80;99.90;;;;;;10083104;28;20183;-68
2024/02/10 20:32:10;;;;;;;15.73;7.55;;;12.70;99.90;;;;;;10097908;28;20033;-67
2024/02/10 20:37:04;;;;;;;14.45;7.88;;;12.70;99.90;;;;;;10098850;28;20063;-68
2024/02/10 20:41:58;;;;;;;15.07;8.20;;;12.70;99.90;;;;;;10103265;28;20024;-67
2024/02/10 20:46:49;;;;;;;15.73;9.02;;;12.70;99.90;;;;;;10098702;28;20259;-66
2024/02/10 20:51:40;;;;;;;14.10;8.70;;;12.70;99.90;;;;;;10102426;28;20327;-66
2024/02/10 20:56:30;;;;;;;14.50;8.55;;;12.60;99.90;;;;;;10102784;28;20025;-66
2024/02/10 21:01:25;;;;;;;15.32;8.38;;;12.70;99.90;;;;;;10098670;28;20021;-66
2024/02/10 21:06:16;;;;;;;13.80;8.32;;;12.70;99.90;;;;;;10104272;28;20040;-65
2024/02/10 21:11:07;;;;;;;15.02;8.52;;;12.70;99.90;;;;;;10101808;28;20040;-66
2024/02/10 21:15:58;;;;;;;13.07;8.20;;;12.70;99.90;;;;;;10100496;28;20053;-66
2024/02/10 21:20:48;;;;;;;14.30;8.45;;;12.70;99.90;;;;;;10112737;28;20021;-66
2024/02/10 21:25:40;;;;;;;15.50;8.20;;;12.70;99.90;;;;;;10114149;28;20132;-67
2024/02/10 21:30:32;;;;;;;15.10;8.57;;;12.70;99.90;;;;;;10107039;28;20032;-67
2024/02/10 21:35:26;;;;;;;15.15;9.13;;;12.70;99.90;;;;;;10107545;28;20041;-67
2024/02/10 21:40:19;;;;;;;15.65;8.57;;;12.70;99.90;;;;;;10092608;28;20053;-68
2024/02/10 21:45:10;;;;;;;14.70;9.05;;;12.60;99.90;;;;;;10101843;28;20033;-67
2024/02/10 21:50:01;;;;;;;13.05;9.27;;;12.60;99.90;;;;;;10091044;28;20075;-67
2024/02/10 21:54:57;;;;;;;14.82;8.63;;;12.60;99.90;;;;;;10103378;28;20398;-67
2024/02/10 21:59:48;;;;;;;14.88;8.88;;;12.60;99.90;;;;;;10090352;28;20100;-66
2024/02/10 22:04:40;;;;;;;13.75;8.98;;;12.60;99.90;;;;;;10099105;28;20048;-68
2024/02/10 22:09:31;;;;;;;12.57;8.05;;;12.60;99.90;;;;;;10103702;28;20052;-67
2024/02/10 22:14:22;;;;;;;14.57;8.18;;;12.60;99.90;;;;;;10085421;28;20033;-67
2024/02/10 22:19:13;;;;;;;12.60;7.72;;;12.50;99.90;;;;;;10107426;28;20039;-67
2024/02/10 22:24:04;;;;;;;13.48;7.85;;;12.60;99.90;;;;;;10098342;28;20122;-66
2024/02/10 22:28:57;;;;;;;14.45;7.82;;;12.50;99.90;;;;;;10070124;28;20049;-67
2024/02/10 22:33:48;;;;;;;15.65;7.95;;;12.60;99.90;;;;;;10084920;28;20021;-67
2024/02/10 22:38:39;;;;;;;10.82;7.80;;;12.50;99.90;;;;;;10101458;28;20025;-66
2024/02/10 22:43:33;;;;;;;14.32;8.38;;;12.60;99.90;;;;;;10097447;28;20021;-67
2024/02/10 22:48:25;;;;;;;13.57;8.50;;;12.60;99.90;;;;;;10103596;28;20704;-67
2024/02/10 22:53:16;;;;;;;10.80;6.55;;;12.60;99.90;;;;;;10107936;28;20351;-66
2024/02/10 22:58:07;;;;;;;16.38;7.88;;;12.50;99.90;;;;;;10108143;28;20036;-68
2024/02/10 23:02:58;;;;;;;17.15;8.55;;;12.50;99.90;;;;;;10105185;28;20028;-67
2024/02/10 23:07:49;;;;;;;13.85;8.00;;;12.50;99.90;;;;;;10107649;28;20470;-69
2024/02/10 23:12:44;;;;;;;14.15;7.20;;;12.50;99.90;;;;;;10088150;28;20518;-69
2024/02/10 23:17:37;;;;;;;11.37;7.90;;;12.60;99.90;;;;;;10059980;28;20029;-67
2024/02/10 23:22:31;;;;;;;15.88;7.97;;;12.60;99.90;;;;;;10083756;28;20453;-67
2024/02/10 23:27:22;;;;;;;11.00;7.40;;;12.60;99.90;;;;;;10084751;28;20056;-68
2024/02/10 23:32:12;;;;;;;11.68;6.93;;;12.60;99.90;;;;;;10079393;28;20552;-66
2024/02/10 23:37:03;;;;;;;11.82;7.68;;;12.60;99.90;;;;;;10097719;28;20087;-67
2024/02/10 23:41:54;;;;;;;11.10;7.40;;;12.50;99.90;;;;;;10100373;28;20099;-68
2024/02/10 23:46:44;;;;;;;15.30;8.02;;;12.40;99.90;;;;;;10101492;28;20565;-66
2024/02/10 23:51:36;;;;;;;13.85;7.57;;;12.40;99.90;;;;;;10106342;28;20033;-66
2024/02/10 23:56:27;;;;;;;13.25;6.95;;;12.40;99.90;;;;;;10098963;28;20327;-66
